sensor_id;sensor_type;location;lat;lon;timestamp;P1;durP1;ratioP1;P2;durP2;ratioP2
26181;SDS011;13927;51.534;11.866;2023-08-08T00:01:56;7.57;;;3.10;;
26181;SDS011;13927;51.534;11.866;2023-08-08T00:04:24;6.53;;;2.88;;
26181;SDS011;13927;51.534;11.866;2023-08-08T00:06:55;6.35;;;2.83;;
26181;SDS011;13927;51.534;11.866;2023-08-08T00:09:23;5.63;;;2.90;;
26181;SDS011;13927;51.534;11.866;2023-08-08T00:11:51;5.80;;;3.42;;
26181;SDS011;13927;51.534;11.866;2023-08-08T00:14:18;9.48;;;3.85;;
26181;SDS011;13927;51.534;11.866;2023-08-08T00:16:48;9.55;;;2.88;;
26181;SDS011;13927;51.534;11.866;2023-08-08T00:19:15;10.07;;;3.25;;
26181;SDS011;13927;51.534;11.866;2023-08-08T00:21:48;7.07;;;2.80;;
26181;SDS011;13927;51.534;11.866;2023-08-08T00:24:16;6.70;;;2.90;;
26181;SDS011;13927;51.534;11.866;2023-08-08T00:26:44;7.10;;;3.13;;
26181;SDS011;13927;51.534;11.866;2023-08-08T00:29:11;4.68;;;3.17;;
26181;SDS011;13927;51.534;11.866;2023-08-08T00:31:39;5.05;;;2.70;;
26181;SDS011;13927;51.534;11.866;2023-08-08T00:34:06;4.63;;;3.40;;
26181;SDS011;13927;51.534;11.866;2023-08-08T00:36:35;5.82;;;2.50;;
26181;SDS011;13927;51.534;11.866;2023-08-08T00:39:03;6.60;;;2.88;;
26181;SDS011;13927;51.534;11.866;2023-08-08T00:41:36;6.22;;;2.88;;
26181;SDS011;13927;51.534;11.866;2023-08-08T00:44:03;7.13;;;2.75;;
26181;SDS011;13927;51.534;11.866;2023-08-08T00:46:31;6.10;;;2.83;;
26181;SDS011;13927;51.534;11.866;2023-08-08T00:48:59;5.32;;;2.65;;
26181;SDS011;13927;51.534;11.866;2023-08-08T00:51:26;5.35;;;2.42;;
26181;SDS011;13927;51.534;11.866;2023-08-08T00:53:53;8.73;;;3.08;;
26181;SDS011;13927;51.534;11.866;2023-08-08T00:56:22;7.60;;;2.50;;
26181;SDS011;13927;51.534;11.866;2023-08-08T00:58:49;8.43;;;2.50;;
26181;SDS011;13927;51.534;11.866;2023-08-08T01:01:18;6.60;;;2.65;;
26181;SDS011;13927;51.534;11.866;2023-08-08T01:03:46;10.43;;;3.08;;
26181;SDS011;13927;51.534;11.866;2023-08-08T01:06:47;5.45;;;2.95;;
26181;SDS011;13927;51.534;11.866;2023-08-08T01:09:45;6.30;;;2.85;;
26181;SDS011;13927;51.534;11.866;2023-08-08T01:12:37;4.57;;;2.70;;
26181;SDS011;13927;51.534;11.866;2023-08-08T01:15:28;7.72;;;2.88;;
26181;SDS011;13927;51.534;11.866;2023-08-08T01:18:04;6.35;;;2.75;;
26181;SDS011;13927;51.534;11.866;2023-08-08T01:20:36;5.50;;;2.63;;
26181;SDS011;13927;51.534;11.866;2023-08-08T01:25:40;4.32;;;2.47;;
26181;SDS011;13927;51.534;11.866;2023-08-08T01:28:09;4.18;;;2.55;;
26181;SDS011;13927;51.534;11.866;2023-08-08T01:30:39;4.10;;;2.60;;
26181;SDS011;13927;51.534;11.866;2023-08-08T01:33:10;5.80;;;2.72;;
26181;SDS011;13927;51.534;11.866;2023-08-08T01:35:42;5.93;;;2.60;;
26181;SDS011;13927;51.534;11.866;2023-08-08T01:38:31;3.88;;;2.58;;
26181;SDS011;13927;51.534;11.866;2023-08-08T01:41:16;5.65;;;2.70;;
26181;SDS011;13927;51.534;11.866;2023-08-08T01:43:45;7.47;;;3.53;;
26181;SDS011;13927;51.534;11.866;2023-08-08T01:48:48;6.90;;;2.60;;
26181;SDS011;13927;51.534;11.866;2023-08-08T01:51:17;3.63;;;2.47;;
26181;SDS011;13927;51.534;11.866;2023-08-08T01:53:52;10.70;;;3.53;;
26181;SDS011;13927;51.534;11.866;2023-08-08T01:56:23;6.28;;;3.13;;
26181;SDS011;13927;51.534;11.866;2023-08-08T01:58:52;5.47;;;2.70;;
26181;SDS011;13927;51.534;11.866;2023-08-08T02:01:23;7.72;;;3.13;;
26181;SDS011;13927;51.534;11.866;2023-08-08T02:03:51;7.18;;;3.00;;
26181;SDS011;13927;51.534;11.866;2023-08-08T02:06:19;5.65;;;2.47;;
26181;SDS011;13927;51.534;11.866;2023-08-08T02:08:48;6.25;;;2.80;;
26181;SDS011;13927;51.534;11.866;2023-08-08T02:11:18;5.18;;;2.30;;
26181;SDS011;13927;51.534;11.866;2023-08-08T02:13:49;7.72;;;2.65;;
26181;SDS011;13927;51.534;11.866;2023-08-08T02:16:20;4.15;;;2.70;;
26181;SDS011;13927;51.534;11.866;2023-08-08T02:18:48;5.15;;;2.70;;
26181;SDS011;13927;51.534;11.866;2023-08-08T02:21:17;5.35;;;2.83;;
26181;SDS011;13927;51.534;11.866;2023-08-08T02:23:43;6.38;;;2.70;;
26181;SDS011;13927;51.534;11.866;2023-08-08T02:26:09;4.30;;;2.47;;
26181;SDS011;13927;51.534;11.866;2023-08-08T02:28:34;8.20;;;2.75;;
26181;SDS011;13927;51.534;11.866;2023-08-08T02:31:00;5.97;;;3.15;;
26181;SDS011;13927;51.534;11.866;2023-08-08T02:33:26;5.85;;;2.83;;
26181;SDS011;13927;51.534;11.866;2023-08-08T02:35:52;6.80;;;2.70;;
26181;SDS011;13927;51.534;11.866;2023-08-08T02:38:17;4.05;;;2.40;;
26181;SDS011;13927;51.534;11.866;2023-08-08T02:40:43;4.35;;;2.80;;
26181;SDS011;13927;51.534;11.866;2023-08-08T02:43:09;5.03;;;2.97;;
26181;SDS011;13927;51.534;11.866;2023-08-08T02:45:35;3.75;;;2.67;;
26181;SDS011;13927;51.534;11.866;2023-08-08T02:48:01;6.07;;;3.03;;
26181;SDS011;13927;51.534;11.866;2023-08-08T02:50:27;5.03;;;2.85;;
26181;SDS011;13927;51.534;11.866;2023-08-08T02:52:53;3.88;;;2.42;;
26181;SDS011;13927;51.534;11.866;2023-08-08T02:55:18;4.43;;;2.63;;
26181;SDS011;13927;51.534;11.866;2023-08-08T02:57:45;3.42;;;2.60;;
26181;SDS011;13927;51.534;11.866;2023-08-08T03:00:11;5.13;;;2.47;;
26181;SDS011;13927;51.534;11.866;2023-08-08T03:02:37;4.88;;;2.75;;
26181;SDS011;13927;51.534;11.866;2023-08-08T03:05:03;5.22;;;2.83;;
26181;SDS011;13927;51.534;11.866;2023-08-08T03:07:29;5.20;;;2.63;;
26181;SDS011;13927;51.534;11.866;2023-08-08T03:09:55;11.00;;;3.53;;
26181;SDS011;13927;51.534;11.866;2023-08-08T03:12:21;3.85;;;2.50;;
26181;SDS011;13927;51.534;11.866;2023-08-08T03:14:46;4.72;;;2.75;;
26181;SDS011;13927;51.534;11.866;2023-08-08T03:17:12;5.45;;;2.70;;
26181;SDS011;13927;51.534;11.866;2023-08-08T03:19:38;5.25;;;2.53;;
26181;SDS011;13927;51.534;11.866;2023-08-08T03:22:03;6.38;;;2.53;;
26181;SDS011;13927;51.534;11.866;2023-08-08T03:24:29;4.57;;;2.47;;
26181;SDS011;13927;51.534;11.866;2023-08-08T03:26:55;3.80;;;2.58;;
26181;SDS011;13927;51.534;11.866;2023-08-08T03:29:21;5.35;;;2.42;;
26181;SDS011;13927;51.534;11.866;2023-08-08T03:31:46;4.88;;;2.35;;
26181;SDS011;13927;51.534;11.866;2023-08-08T03:34:12;6.57;;;3.22;;
26181;SDS011;13927;51.534;11.866;2023-08-08T03:36:38;5.53;;;2.92;;
26181;SDS011;13927;51.534;11.866;2023-08-08T03:39:04;5.10;;;2.83;;
26181;SDS011;13927;51.534;11.866;2023-08-08T03:41:31;7.30;;;2.70;;
26181;SDS011;13927;51.534;11.866;2023-08-08T03:43:56;3.63;;;2.25;;
26181;SDS011;13927;51.534;11.866;2023-08-08T03:46:22;6.88;;;2.92;;
26181;SDS011;13927;51.534;11.866;2023-08-08T03:48:48;6.50;;;3.08;;
26181;SDS011;13927;51.534;11.866;2023-08-08T03:51:14;5.20;;;2.65;;
26181;SDS011;13927;51.534;11.866;2023-08-08T03:53:39;5.53;;;3.00;;
26181;SDS011;13927;51.534;11.866;2023-08-08T03:56:05;5.15;;;2.88;;
26181;SDS011;13927;51.534;11.866;2023-08-08T03:58:32;6.93;;;2.90;;
26181;SDS011;13927;51.534;11.866;2023-08-08T04:00:58;5.63;;;2.80;;
26181;SDS011;13927;51.534;11.866;2023-08-08T04:03:24;5.28;;;2.95;;
26181;SDS011;13927;51.534;11.866;2023-08-08T04:05:49;4.85;;;2.42;;
26181;SDS011;13927;51.534;11.866;2023-08-08T04:08:16;6.45;;;3.72;;
26181;SDS011;13927;51.534;11.866;2023-08-08T04:10:42;6.15;;;2.50;;
26181;SDS011;13927;51.534;11.866;2023-08-08T04:13:09;8.68;;;3.13;;
26181;SDS011;13927;51.534;11.866;2023-08-08T04:15:35;5.35;;;2.50;;
26181;SDS011;13927;51.534;11.866;2023-08-08T04:18:01;5.68;;;2.70;;
26181;SDS011;13927;51.534;11.866;2023-08-08T04:20:27;4.05;;;2.70;;
26181;SDS011;13927;51.534;11.866;2023-08-08T04:22:53;6.28;;;3.08;;
26181;SDS011;13927;51.534;11.866;2023-08-08T04:25:19;6.22;;;2.42;;
26181;SDS011;13927;51.534;11.866;2023-08-08T04:27:46;5.07;;;2.70;;
26181;SDS011;13927;51.534;11.866;2023-08-08T04:30:12;7.07;;;2.50;;
26181;SDS011;13927;51.534;11.866;2023-08-08T04:32:38;3.63;;;2.35;;
26181;SDS011;13927;51.534;11.866;2023-08-08T04:35:03;5.13;;;2.67;;
26181;SDS011;13927;51.534;11.866;2023-08-08T04:37:29;3.42;;;2.50;;
26181;SDS011;13927;51.534;11.866;2023-08-08T04:39:55;7.45;;;2.60;;
26181;SDS011;13927;51.534;11.866;2023-08-08T04:42:21;5.97;;;2.85;;
26181;SDS011;13927;51.534;11.866;2023-08-08T04:44:47;6.60;;;2.42;;
26181;SDS011;13927;51.534;11.866;2023-08-08T04:47:12;3.90;;;2.75;;
26181;SDS011;13927;51.534;11.866;2023-08-08T04:49:38;3.65;;;2.22;;
26181;SDS011;13927;51.534;11.866;2023-08-08T04:52:04;6.18;;;2.67;;
26181;SDS011;13927;51.534;11.866;2023-08-08T04:54:30;4.95;;;2.60;;
26181;SDS011;13927;51.534;11.866;2023-08-08T04:56:56;3.60;;;2.80;;
26181;SDS011;13927;51.534;11.866;2023-08-08T04:59:22;6.47;;;2.90;;
26181;SDS011;13927;51.534;11.866;2023-08-08T05:01:48;3.38;;;2.22;;
26181;SDS011;13927;51.534;11.866;2023-08-08T05:04:14;6.28;;;2.60;;
26181;SDS011;13927;51.534;11.866;2023-08-08T05:06:39;5.28;;;2.30;;
26181;SDS011;13927;51.534;11.866;2023-08-08T05:09:05;5.15;;;2.42;;
26181;SDS011;13927;51.534;11.866;2023-08-08T05:11:34;3.42;;;2.50;;
26181;SDS011;13927;51.534;11.866;2023-08-08T05:14:01;3.83;;;2.38;;
26181;SDS011;13927;51.534;11.866;2023-08-08T05:16:27;5.32;;;2.10;;
26181;SDS011;13927;51.534;11.866;2023-08-08T05:18:53;3.75;;;2.55;;
26181;SDS011;13927;51.534;11.866;2023-08-08T05:21:19;4.28;;;2.58;;
26181;SDS011;13927;51.534;11.866;2023-08-08T05:23:46;4.95;;;2.55;;
26181;SDS011;13927;51.534;11.866;2023-08-08T05:26:13;5.40;;;2.67;;
26181;SDS011;13927;51.534;11.866;2023-08-08T05:28:40;4.55;;;2.47;;
26181;SDS011;13927;51.534;11.866;2023-08-08T05:31:06;6.43;;;2.28;;
26181;SDS011;13927;51.534;11.866;2023-08-08T05:33:32;4.85;;;2.35;;
26181;SDS011;13927;51.534;11.866;2023-08-08T05:35:58;3.78;;;2.20;;
26181;SDS011;13927;51.534;11.866;2023-08-08T05:38:24;4.63;;;2.33;;
26181;SDS011;13927;51.534;11.866;2023-08-08T05:40:50;6.55;;;2.70;;
26181;SDS011;13927;51.534;11.866;2023-08-08T05:43:16;3.72;;;2.33;;
26181;SDS011;13927;51.534;11.866;2023-08-08T05:45:46;4.50;;;2.60;;
26181;SDS011;13927;51.534;11.866;2023-08-08T05:48:12;6.13;;;2.17;;
26181;SDS011;13927;51.534;11.866;2023-08-08T05:50:38;5.68;;;2.40;;
26181;SDS011;13927;51.534;11.866;2023-08-08T05:53:05;4.05;;;2.10;;
26181;SDS011;13927;51.534;11.866;2023-08-08T05:55:31;4.55;;;2.38;;
26181;SDS011;13927;51.534;11.866;2023-08-08T05:57:57;3.83;;;2.25;;
26181;SDS011;13927;51.534;11.866;2023-08-08T06:00:23;3.28;;;1.88;;
26181;SDS011;13927;51.534;11.866;2023-08-08T06:02:49;5.15;;;2.55;;
26181;SDS011;13927;51.534;11.866;2023-08-08T06:05:16;4.18;;;1.80;;
26181;SDS011;13927;51.534;11.866;2023-08-08T06:07:43;4.43;;;1.95;;
26181;SDS011;13927;51.534;11.866;2023-08-08T06:10:10;3.22;;;2.05;;
26181;SDS011;13927;51.534;11.866;2023-08-08T06:12:36;5.47;;;2.00;;
26181;SDS011;13927;51.534;11.866;2023-08-08T06:15:02;4.32;;;2.03;;
26181;SDS011;13927;51.534;11.866;2023-08-08T06:17:31;3.25;;;2.00;;
26181;SDS011;13927;51.534;11.866;2023-08-08T06:19:57;4.70;;;2.08;;
26181;SDS011;13927;51.534;11.866;2023-08-08T06:22:23;3.75;;;2.10;;
26181;SDS011;13927;51.534;11.866;2023-08-08T06:24:50;3.15;;;1.63;;
26181;SDS011;13927;51.534;11.866;2023-08-08T06:27:17;2.70;;;1.92;;
26181;SDS011;13927;51.534;11.866;2023-08-08T06:29:43;2.60;;;1.67;;
26181;SDS011;13927;51.534;11.866;2023-08-08T06:32:09;4.53;;;1.90;;
26181;SDS011;13927;51.534;11.866;2023-08-08T06:34:35;2.40;;;1.70;;
26181;SDS011;13927;51.534;11.866;2023-08-08T06:37:01;2.95;;;1.52;;
26181;SDS011;13927;51.534;11.866;2023-08-08T06:39:27;3.78;;;1.98;;
26181;SDS011;13927;51.534;11.866;2023-08-08T06:41:53;4.95;;;2.00;;
26181;SDS011;13927;51.534;11.866;2023-08-08T06:44:19;3.03;;;1.50;;
26181;SDS011;13927;51.534;11.866;2023-08-08T06:46:46;3.22;;;1.70;;
26181;SDS011;13927;51.534;11.866;2023-08-08T06:49:12;3.03;;;1.80;;
26181;SDS011;13927;51.534;11.866;2023-08-08T06:51:38;2.65;;;1.40;;
26181;SDS011;13927;51.534;11.866;2023-08-08T06:54:04;2.33;;;1.65;;
26181;SDS011;13927;51.534;11.866;2023-08-08T06:56:30;3.00;;;1.70;;
26181;SDS011;13927;51.534;11.866;2023-08-08T06:58:56;2.30;;;1.58;;
26181;SDS011;13927;51.534;11.866;2023-08-08T07:01:21;2.88;;;1.70;;
26181;SDS011;13927;51.534;11.866;2023-08-08T07:03:47;2.78;;;1.33;;
26181;SDS011;13927;51.534;11.866;2023-08-08T07:06:13;2.20;;;1.73;;
26181;SDS011;13927;51.534;11.866;2023-08-08T07:08:42;2.60;;;1.60;;
26181;SDS011;13927;51.534;11.866;2023-08-08T07:11:08;2.20;;;1.35;;
26181;SDS011;13927;51.534;11.866;2023-08-08T07:13:34;3.25;;;1.88;;
26181;SDS011;13927;51.534;11.866;2023-08-08T07:16:00;3.15;;;1.63;;
26181;SDS011;13927;51.534;11.866;2023-08-08T07:18:26;3.08;;;1.73;;
26181;SDS011;13927;51.534;11.866;2023-08-08T07:20:51;3.35;;;1.70;;
26181;SDS011;13927;51.534;11.866;2023-08-08T07:23:18;2.45;;;1.30;;
26181;SDS011;13927;51.534;11.866;2023-08-08T07:25:47;4.10;;;1.77;;
26181;SDS011;13927;51.534;11.866;2023-08-08T07:28:14;3.10;;;1.92;;
26181;SDS011;13927;51.534;11.866;2023-08-08T07:30:40;3.03;;;1.80;;
26181;SDS011;13927;51.534;11.866;2023-08-08T07:33:07;2.50;;;2.00;;
26181;SDS011;13927;51.534;11.866;2023-08-08T07:35:35;2.58;;;1.80;;
26181;SDS011;13927;51.534;11.866;2023-08-08T07:38:01;3.22;;;1.77;;
26181;SDS011;13927;51.534;11.866;2023-08-08T07:40:27;2.85;;;1.95;;
26181;SDS011;13927;51.534;11.866;2023-08-08T07:42:53;4.55;;;2.35;;
26181;SDS011;13927;51.534;11.866;2023-08-08T07:45:19;3.92;;;2.03;;
26181;SDS011;13927;51.534;11.866;2023-08-08T07:47:45;4.20;;;2.08;;
26181;SDS011;13927;51.534;11.866;2023-08-08T07:50:11;3.70;;;1.80;;
26181;SDS011;13927;51.534;11.866;2023-08-08T07:52:37;3.47;;;1.70;;
26181;SDS011;13927;51.534;11.866;2023-08-08T07:55:04;3.20;;;1.98;;
26181;SDS011;13927;51.534;11.866;2023-08-08T07:57:31;5.63;;;2.15;;
26181;SDS011;13927;51.534;11.866;2023-08-08T08:00:04;2.95;;;1.90;;
26181;SDS011;13927;51.534;11.866;2023-08-08T08:02:36;4.18;;;1.90;;
26181;SDS011;13927;51.534;11.866;2023-08-08T08:05:02;4.70;;;2.40;;
26181;SDS011;13927;51.534;11.866;2023-08-08T08:07:30;4.63;;;2.80;;
26181;SDS011;13927;51.534;11.866;2023-08-08T08:09:57;3.33;;;2.22;;
26181;SDS011;13927;51.534;11.866;2023-08-08T08:12:23;3.50;;;2.03;;
26181;SDS011;13927;51.534;11.866;2023-08-08T08:14:49;4.10;;;1.85;;
26181;SDS011;13927;51.534;11.866;2023-08-08T08:17:15;3.42;;;2.25;;
26181;SDS011;13927;51.534;11.866;2023-08-08T08:19:40;2.72;;;2.00;;
26181;SDS011;13927;51.534;11.866;2023-08-08T08:22:06;2.85;;;2.08;;
26181;SDS011;13927;51.534;11.866;2023-08-08T08:24:32;3.53;;;2.00;;
26181;SDS011;13927;51.534;11.866;2023-08-08T08:26:58;3.72;;;2.03;;
26181;SDS011;13927;51.534;11.866;2023-08-08T08:29:24;2.47;;;1.85;;
26181;SDS011;13927;51.534;11.866;2023-08-08T08:31:49;4.15;;;2.25;;
26181;SDS011;13927;51.534;11.866;2023-08-08T08:34:15;3.50;;;2.05;;
26181;SDS011;13927;51.534;11.866;2023-08-08T08:36:41;3.78;;;2.00;;
26181;SDS011;13927;51.534;11.866;2023-08-08T08:39:07;3.75;;;2.53;;
26181;SDS011;13927;51.534;11.866;2023-08-08T08:41:32;5.50;;;2.30;;
26181;SDS011;13927;51.534;11.866;2023-08-08T08:44:03;4.65;;;2.20;;
26181;SDS011;13927;51.534;11.866;2023-08-08T08:46:30;3.25;;;1.95;;
26181;SDS011;13927;51.534;11.866;2023-08-08T08:48:58;3.10;;;1.67;;
26181;SDS011;13927;51.534;11.866;2023-08-08T08:51:25;3.28;;;2.30;;
26181;SDS011;13927;51.534;11.866;2023-08-08T08:53:51;5.32;;;2.25;;
26181;SDS011;13927;51.534;11.866;2023-08-08T08:56:18;6.82;;;2.38;;
26181;SDS011;13927;51.534;11.866;2023-08-08T08:58:45;6.25;;;2.38;;
26181;SDS011;13927;51.534;11.866;2023-08-08T09:01:11;4.72;;;2.42;;
26181;SDS011;13927;51.534;11.866;2023-08-08T09:03:38;4.47;;;2.30;;
26181;SDS011;13927;51.534;11.866;2023-08-08T09:06:05;5.32;;;2.75;;
26181;SDS011;13927;51.534;11.866;2023-08-08T09:08:31;5.03;;;2.22;;
26181;SDS011;13927;51.534;11.866;2023-08-08T09:10:57;3.58;;;2.20;;
26181;SDS011;13927;51.534;11.866;2023-08-08T09:13:23;4.82;;;2.30;;
26181;SDS011;13927;51.534;11.866;2023-08-08T09:15:51;6.50;;;2.30;;
26181;SDS011;13927;51.534;11.866;2023-08-08T09:18:18;3.13;;;2.17;;
26181;SDS011;13927;51.534;11.866;2023-08-08T09:20:48;4.70;;;2.22;;
26181;SDS011;13927;51.534;11.866;2023-08-08T09:23:15;3.83;;;2.33;;
26181;SDS011;13927;51.534;11.866;2023-08-08T09:25:41;6.65;;;2.20;;
26181;SDS011;13927;51.534;11.866;2023-08-08T09:28:07;2.95;;;2.22;;
26181;SDS011;13927;51.534;11.866;2023-08-08T09:30:34;4.38;;;2.50;;
26181;SDS011;13927;51.534;11.866;2023-08-08T09:33:01;4.15;;;2.35;;
26181;SDS011;13927;51.534;11.866;2023-08-08T09:35:31;3.50;;;2.22;;
26181;SDS011;13927;51.534;11.866;2023-08-08T09:37:57;4.68;;;2.10;;
26181;SDS011;13927;51.534;11.866;2023-08-08T09:40:24;3.50;;;1.92;;
26181;SDS011;13927;51.534;11.866;2023-08-08T09:42:53;5.28;;;2.55;;
26181;SDS011;13927;51.534;11.866;2023-08-08T09:45:20;3.33;;;2.22;;
26181;SDS011;13927;51.534;11.866;2023-08-08T09:47:48;3.17;;;2.50;;
26181;SDS011;13927;51.534;11.866;2023-08-08T09:50:17;4.00;;;2.10;;
26181;SDS011;13927;51.534;11.866;2023-08-08T09:52:45;3.97;;;2.30;;
26181;SDS011;13927;51.534;11.866;2023-08-08T09:55:13;4.20;;;2.58;;
26181;SDS011;13927;51.534;11.866;2023-08-08T09:57:40;3.75;;;1.75;;
26181;SDS011;13927;51.534;11.866;2023-08-08T10:00:09;6.35;;;2.15;;
26181;SDS011;13927;51.534;11.866;2023-08-08T10:02:41;4.63;;;2.10;;
26181;SDS011;13927;51.534;11.866;2023-08-08T10:05:11;5.22;;;2.22;;
26181;SDS011;13927;51.534;11.866;2023-08-08T10:07:40;3.00;;;1.80;;
26181;SDS011;13927;51.534;11.866;2023-08-08T10:10:07;3.75;;;2.30;;
26181;SDS011;13927;51.534;11.866;2023-08-08T10:12:38;3.85;;;2.20;;
26181;SDS011;13927;51.534;11.866;2023-08-08T10:15:08;3.22;;;2.13;;
26181;SDS011;13927;51.534;11.866;2023-08-08T10:17:36;4.97;;;2.42;;
26181;SDS011;13927;51.534;11.866;2023-08-08T10:20:04;3.80;;;1.80;;
26181;SDS011;13927;51.534;11.866;2023-08-08T10:22:43;4.68;;;2.00;;
26181;SDS011;13927;51.534;11.866;2023-08-08T10:25:24;4.78;;;1.85;;
26181;SDS011;13927;51.534;11.866;2023-08-08T10:28:08;3.55;;;2.33;;
26181;SDS011;13927;51.534;11.866;2023-08-08T10:30:48;3.85;;;1.85;;
26181;SDS011;13927;51.534;11.866;2023-08-08T10:33:25;4.32;;;2.15;;
26181;SDS011;13927;51.534;11.866;2023-08-08T10:36:06;2.85;;;2.00;;
26181;SDS011;13927;51.534;11.866;2023-08-08T10:38:43;6.38;;;1.90;;
26181;SDS011;13927;51.534;11.866;2023-08-08T10:41:20;2.47;;;1.75;;
26181;SDS011;13927;51.534;11.866;2023-08-08T10:43:48;2.93;;;2.27;;
26181;SDS011;13927;51.534;11.866;2023-08-08T10:46:31;2.83;;;2.00;;
26181;SDS011;13927;51.534;11.866;2023-08-08T10:49:04;4.47;;;2.70;;
26181;SDS011;13927;51.534;11.866;2023-08-08T10:51:41;3.85;;;2.38;;
26181;SDS011;13927;51.534;11.866;2023-08-08T10:54:19;2.92;;;2.08;;
26181;SDS011;13927;51.534;11.866;2023-08-08T10:56:58;3.55;;;2.25;;
26181;SDS011;13927;51.534;11.866;2023-08-08T10:59:27;5.22;;;2.25;;
26181;SDS011;13927;51.534;11.866;2023-08-08T11:02:02;4.50;;;2.33;;
26181;SDS011;13927;51.534;11.866;2023-08-08T11:04:29;3.92;;;2.60;;
26181;SDS011;13927;51.534;11.866;2023-08-08T11:06:58;5.95;;;2.72;;
26181;SDS011;13927;51.534;11.866;2023-08-08T11:09:24;3.90;;;2.20;;
26181;SDS011;13927;51.534;11.866;2023-08-08T11:11:51;3.80;;;2.08;;
26181;SDS011;13927;51.534;11.866;2023-08-08T11:14:19;3.78;;;2.22;;
26181;SDS011;13927;51.534;11.866;2023-08-08T11:16:48;5.15;;;2.20;;
26181;SDS011;13927;51.534;11.866;2023-08-08T11:19:16;3.40;;;2.35;;
26181;SDS011;13927;51.534;11.866;2023-08-08T11:21:45;3.50;;;2.60;;
26181;SDS011;13927;51.534;11.866;2023-08-08T11:24:13;10.48;;;2.67;;
26181;SDS011;13927;51.534;11.866;2023-08-08T11:26:40;3.22;;;2.20;;
26181;SDS011;13927;51.534;11.866;2023-08-08T11:29:09;5.68;;;2.50;;
26181;SDS011;13927;51.534;11.866;2023-08-08T11:31:35;5.50;;;3.47;;
26181;SDS011;13927;51.534;11.866;2023-08-08T11:34:02;5.18;;;2.80;;
26181;SDS011;13927;51.534;11.866;2023-08-08T11:36:30;5.47;;;2.85;;
26181;SDS011;13927;51.534;11.866;2023-08-08T11:39:01;4.60;;;2.83;;
26181;SDS011;13927;51.534;11.866;2023-08-08T11:41:33;7.15;;;3.90;;
26181;SDS011;13927;51.534;11.866;2023-08-08T11:44:01;8.25;;;3.65;;
26181;SDS011;13927;51.534;11.866;2023-08-08T11:46:33;5.93;;;4.00;;
26181;SDS011;13927;51.534;11.866;2023-08-08T11:49:05;6.07;;;3.70;;
26181;SDS011;13927;51.534;11.866;2023-08-08T11:51:32;4.15;;;3.50;;
26181;SDS011;13927;51.534;11.866;2023-08-08T11:54:02;4.57;;;3.05;;
26181;SDS011;13927;51.534;11.866;2023-08-08T11:56:29;5.97;;;3.30;;
26181;SDS011;13927;51.534;11.866;2023-08-08T11:58:59;5.15;;;2.97;;
26181;SDS011;13927;51.534;11.866;2023-08-08T12:01:26;4.38;;;3.17;;
26181;SDS011;13927;51.534;11.866;2023-08-08T12:03:54;4.85;;;3.00;;
26181;SDS011;13927;51.534;11.866;2023-08-08T12:06:21;6.13;;;2.97;;
26181;SDS011;13927;51.534;11.866;2023-08-08T12:08:48;5.50;;;3.55;;
26181;SDS011;13927;51.534;11.866;2023-08-08T12:11:16;5.25;;;2.90;;
26181;SDS011;13927;51.534;11.866;2023-08-08T12:13:43;3.25;;;2.92;;
26181;SDS011;13927;51.534;11.866;2023-08-08T12:16:11;4.53;;;3.15;;
26181;SDS011;13927;51.534;11.866;2023-08-08T12:18:40;4.10;;;3.00;;
26181;SDS011;13927;51.534;11.866;2023-08-08T12:21:09;5.13;;;3.05;;
26181;SDS011;13927;51.534;11.866;2023-08-08T12:23:36;3.88;;;2.88;;
26181;SDS011;13927;51.534;11.866;2023-08-08T12:26:03;5.13;;;3.35;;
26181;SDS011;13927;51.534;11.866;2023-08-08T12:28:31;3.80;;;3.33;;
26181;SDS011;13927;51.534;11.866;2023-08-08T12:30:57;5.57;;;2.97;;
26181;SDS011;13927;51.534;11.866;2023-08-08T12:33:24;3.85;;;2.70;;
26181;SDS011;13927;51.534;11.866;2023-08-08T12:35:49;5.32;;;3.30;;
26181;SDS011;13927;51.534;11.866;2023-08-08T12:38:16;4.97;;;3.03;;
26181;SDS011;13927;51.534;11.866;2023-08-08T12:40:42;4.63;;;3.00;;
26181;SDS011;13927;51.534;11.866;2023-08-08T12:43:09;8.77;;;3.35;;
26181;SDS011;13927;51.534;11.866;2023-08-08T12:45:38;5.03;;;3.47;;
26181;SDS011;13927;51.534;11.866;2023-08-08T12:48:05;4.50;;;3.47;;
26181;SDS011;13927;51.534;11.866;2023-08-08T12:50:32;5.38;;;3.55;;
26181;SDS011;13927;51.534;11.866;2023-08-08T12:52:58;5.13;;;3.40;;
26181;SDS011;13927;51.534;11.866;2023-08-08T12:55:24;4.75;;;3.65;;
26181;SDS011;13927;51.534;11.866;2023-08-08T12:57:50;6.50;;;3.65;;
26181;SDS011;13927;51.534;11.866;2023-08-08T13:00:16;4.88;;;3.45;;
26181;SDS011;13927;51.534;11.866;2023-08-08T13:02:42;4.65;;;3.10;;
26181;SDS011;13927;51.534;11.866;2023-08-08T13:05:08;4.07;;;3.20;;
26181;SDS011;13927;51.534;11.866;2023-08-08T13:07:34;5.35;;;2.85;;
26181;SDS011;13927;51.534;11.866;2023-08-08T13:10:01;5.10;;;3.30;;
26181;SDS011;13927;51.534;11.866;2023-08-08T13:12:27;4.57;;;3.20;;
26181;SDS011;13927;51.534;11.866;2023-08-08T13:14:53;5.03;;;3.10;;
26181;SDS011;13927;51.534;11.866;2023-08-08T13:17:19;5.45;;;2.95;;
26181;SDS011;13927;51.534;11.866;2023-08-08T13:19:45;5.30;;;3.47;;
26181;SDS011;13927;51.534;11.866;2023-08-08T13:22:11;5.47;;;3.17;;
26181;SDS011;13927;51.534;11.866;2023-08-08T13:24:37;4.38;;;3.17;;
26181;SDS011;13927;51.534;11.866;2023-08-08T13:27:04;6.13;;;3.63;;
26181;SDS011;13927;51.534;11.866;2023-08-08T13:29:31;5.53;;;3.90;;
26181;SDS011;13927;51.534;11.866;2023-08-08T13:31:57;4.78;;;3.28;;
26181;SDS011;13927;51.534;11.866;2023-08-08T13:34:24;4.05;;;3.20;;
26181;SDS011;13927;51.534;11.866;2023-08-08T13:36:50;4.03;;;3.22;;
26181;SDS011;13927;51.534;11.866;2023-08-08T13:39:16;5.50;;;3.65;;
26181;SDS011;13927;51.534;11.866;2023-08-08T13:41:42;5.72;;;3.90;;
26181;SDS011;13927;51.534;11.866;2023-08-08T13:44:08;6.43;;;3.88;;
26181;SDS011;13927;51.534;11.866;2023-08-08T13:46:34;4.88;;;3.53;;
26181;SDS011;13927;51.534;11.866;2023-08-08T13:49:00;7.30;;;3.92;;
26181;SDS011;13927;51.534;11.866;2023-08-08T13:51:26;4.57;;;3.63;;
26181;SDS011;13927;51.534;11.866;2023-08-08T13:53:52;4.72;;;3.58;;
26181;SDS011;13927;51.534;11.866;2023-08-08T13:56:19;5.85;;;4.25;;
26181;SDS011;13927;51.534;11.866;2023-08-08T13:58:45;5.75;;;3.92;;
26181;SDS011;13927;51.534;11.866;2023-08-08T14:01:11;5.72;;;3.50;;
26181;SDS011;13927;51.534;11.866;2023-08-08T14:03:37;5.53;;;3.92;;
26181;SDS011;13927;51.534;11.866;2023-08-08T14:06:04;4.95;;;3.05;;
26181;SDS011;13927;51.534;11.866;2023-08-08T14:08:31;4.45;;;3.05;;
26181;SDS011;13927;51.534;11.866;2023-08-08T14:10:57;3.80;;;2.97;;
26181;SDS011;13927;51.534;11.866;2023-08-08T14:13:23;4.53;;;3.17;;
26181;SDS011;13927;51.534;11.866;2023-08-08T14:15:49;4.82;;;2.83;;
26181;SDS011;13927;51.534;11.866;2023-08-08T14:18:16;4.07;;;2.80;;
26181;SDS011;13927;51.534;11.866;2023-08-08T14:20:43;2.97;;;2.42;;
26181;SDS011;13927;51.534;11.866;2023-08-08T14:23:09;5.28;;;2.80;;
26181;SDS011;13927;51.534;11.866;2023-08-08T14:25:35;3.60;;;2.80;;
26181;SDS011;13927;51.534;11.866;2023-08-08T14:28:01;3.78;;;3.38;;
26181;SDS011;13927;51.534;11.866;2023-08-08T14:30:29;5.18;;;3.38;;
26181;SDS011;13927;51.534;11.866;2023-08-08T14:32:55;5.80;;;3.50;;
26181;SDS011;13927;51.534;11.866;2023-08-08T14:35:21;3.63;;;3.25;;
26181;SDS011;13927;51.534;11.866;2023-08-08T14:37:48;5.70;;;3.33;;
26181;SDS011;13927;51.534;11.866;2023-08-08T14:40:14;5.57;;;3.58;;
26181;SDS011;13927;51.534;11.866;2023-08-08T14:42:40;5.00;;;3.05;;